Flight Track Log - Related Links

Times and Time Zones

All times are in EDT time to prevent confusion due to time zone crossing. See the SWA902 flight status page for this flight to view local times or setup timezone preferences in your user account.

Time Position Orientation Groundspeed Altitude Reporting Facility
EDT Latitude Longitude Course Direction KTS MPH feet Rate Location/Type
Sun 09:43:02 PM 41.2475 -95.9000 195° South 199 229 3,800  Level Minneapolis Center
Sun 09:43:20 PM 41.2453 -95.9064 245° Southwest 207 238 4,100 2,066 Climbing Minneapolis Center
Sun 09:44:03 PM 41.2275 -95.9800 252° West 261 300 5,900 3,246 Climbing Minneapolis Center
Sun 09:44:21 PM 41.2328 -96.0114 283° West 239 275 7,400 3,675 Climbing Minneapolis Center
Sun 09:45:23 PM 41.2394 -96.1142 275° West 270 311 10,800 2,732 Climbing Minneapolis Center
Sun 09:46:24 PM 41.2461 -96.2144 275° West 325 374 13,000 3,049 Climbing Minneapolis Center
Sun 09:47:25 PM 41.2569 -96.3681 275° West 344 396 17,000 3,492 Climbing Minneapolis Center
Sun 09:48:26 PM 41.2661 -96.5039 275° West 362 417 20,100 2,902 Climbing Minneapolis Center
Sun 09:49:27 PM 41.2756 -96.6439 275° West 375 432 22,900 2,459 Climbing Minneapolis Center
Sun 09:50:28 PM 41.2856 -96.7897 275° West 392 451 25,100 2,164 Climbing Minneapolis Center
Sun 09:51:29 PM 41.2956 -96.9389 275° West 404 465 27,300 2,049 Climbing Minneapolis Center
Sun 09:52:31 PM 41.3044 -97.0906 275° West 409 471 29,300 1,951 Climbing Minneapolis Center
Sun 09:53:32 PM 41.3133 -97.2428 274° West 413 475 31,300 1,967 Climbing Minneapolis Center
Sun 09:54:33 PM 41.3225 -97.3925 275° West 409 471 33,300 1,967 Climbing Minneapolis Center
Sun 09:55:34 PM 41.3322 -97.5636 274° West 406 467 35,300 1,478 Climbing Minneapolis Center
Sun 09:56:47 PM 41.3403 -97.6886 275° West 402 463 36,600 1,209 Climbing Minneapolis Center
Sun 09:57:48 PM 41.3506 -97.8650 274° West 399 459 38,000 689 Climbing Minneapolis Center
Sun 09:58:49 PM 41.3575 -98.0114 274° West 397 457 38,000  Level Minneapolis Center
Sun 10:00:03 PM 41.3667 -98.1769 274° West 395 455 38,000  Level Minneapolis Center
Sun 10:01:04 PM 41.3733 -98.3497 273° West 393 452 38,000  Level Minneapolis Center
Sun 10:02:05 PM 41.3403 -98.4972 253° West 391 450 38,000  Level Minneapolis Center
Sun 10:03:06 PM 41.3061 -98.6356 252° West 393 452 38,000  Level Minneapolis Center
Sun 10:04:07 PM 41.2739 -98.7744 253° West 394 453 38,000  Level Minneapolis Center
Sun 10:05:03 PM 41.2458 -98.8836 251° West 395 455 38,000  Level Denver Center
Sun 10:06:05 PM 41.2067 -99.0383 251° West 395 455 38,000 -387 Level Denver Center
Sun 10:07:07 PM 41.1661 -99.1994 252° West 395 455 37,200 -871 Descending Denver Center
Sun 10:08:09 PM 41.1306 -99.3372 251° West 397 457 36,200 -1,016 Descending Denver Center
Sun 10:09:11 PM 41.0947 -99.4789 251° West 396 456 35,100 -1,024 Descending Denver Center
Sun 10:10:12 PM 41.0617 -99.6081 251° West 386 444 34,100 -976 Descending Denver Center
Sun 10:11:14 PM 41.0283 -99.7392 251° West 378 435 33,100 -1,016 Descending Denver Center
Sun 10:12:16 PM 40.9931 -99.8742 251° West 369 425 32,000 -532 Descending Denver Center
Sun 10:13:18 PM 40.9567 -100.0147 251° West 362 417 32,000  Level Denver Center
Sun 10:14:20 PM 40.9250 -100.1358 251° West 364 419 32,000  Level Denver Center
Sun 10:15:21 PM 40.8931 -100.2572 251° West 365 420 32,000  Level Denver Center
Sun 10:16:23 PM 40.8553 -100.3978 250° West 364 419 32,000  Level Denver Center
Sun 10:17:25 PM 40.8231 -100.5208 251° West 367 422 32,000  Level Denver Center
Sun 10:18:26 PM 40.8361 -100.6397 278° West 369 425 32,000  Level Denver Center
Sun 10:19:28 PM 40.8981 -100.7633 304° West 394 453 32,000  Level Denver Center
Sun 10:20:30 PM 40.8636 -100.9033 252° West 368 423 32,000  Level Denver Center
Sun 10:21:32 PM 40.8275 -101.0461 252° West 369 425 32,000  Level Denver Center
Sun 10:22:33 PM 40.7953 -101.1689 251° West 370 426 32,000  Level Denver Center
Sun 10:23:35 PM 40.7631 -101.2931 251° West 375 432 32,000  Level Denver Center
Sun 10:24:37 PM 40.7233 -101.4414 251° West 384 442 32,000  Level Denver Center
Sun 10:25:38 PM 40.6897 -101.5700 251° West 387 445 32,000  Level Denver Center
Sun 10:26:40 PM 40.6492 -101.7186 250° West 388 447 32,000  Level Denver Center
Sun 10:27:42 PM 40.6147 -101.8464 250° West 387 445 32,000  Level Denver Center
Sun 10:28:43 PM 40.5753 -101.9964 251° West 388 447 32,000  Level Denver Center
Sun 10:29:45 PM 40.5411 -102.1236 251° West 388 447 32,000  Level Denver Center
Sun 10:30:47 PM 40.5061 -102.2503 250° West 385 443 32,000  Level Denver Center
Sun 10:31:48 PM 40.4764 -102.4089 256° West 402 463 32,000  Level Denver Center
Sun 10:32:50 PM 40.4506 -102.5494 256° West 412 474 32,000  Level Denver Center
Sun 10:33:51 PM 40.4219 -102.7061 257° West 418 481 32,000  Level Denver Center
Sun 10:34:53 PM 40.3933 -102.8561 256° West 420 483 32,000  Level Denver Center
Sun 10:35:54 PM 40.3658 -103.0044 256° West 416 479 32,000 -49 Level Denver Center
Sun 10:36:56 PM 40.3364 -103.1525 255° West 416 479 31,900 -1,122 Descending Denver Center
Sun 10:37:57 PM 40.3100 -103.2950 256° West 402 463 29,700 -2,293 Descending Denver Center
Sun 10:38:59 PM 40.2781 -103.4536 255° West 386 444 27,200 -2,293 Descending Denver Center
Sun 10:40:00 PM 40.2519 -103.5908 256° West 385 443 25,000 -2,098 Descending Denver Center
Sun 10:41:02 PM 40.2256 -103.7211 255° West 377 434 22,900 -1,333 Descending Denver Center
Sun 10:42:15 PM 40.2008 -103.8472 256° West 352 405 22,000 -1,244 Descending Denver Center
Sun 10:43:17 PM 40.1481 -103.9683 240° Southwest 310 357 20,100 -1,659 Descending Denver Center
Sun 10:44:18 PM 40.1039 -104.0628 239° Southwest 305 351 18,600 -1,512 Descending Denver Center
Sun 10:45:20 PM 40.0567 -104.1628 238° Southwest 302 348 17,000 -1,366 Descending Denver Center
Sun 10:46:21 PM 40.0150 -104.2542 239° Southwest 295 339 15,800 -1,317 Descending Denver Center
Sun 10:47:23 PM 39.9717 -104.3447 238° Southwest 295 339 14,300 -1,512 Descending Denver Center
Sun 10:48:24 PM 39.9269 -104.4411 239° Southwest 289 333 12,700 -1,333 Descending Denver Center
Sun 10:49:38 PM 39.8500 -104.5000 210° Southwest 289 333 11,300 -927 Descending Denver TRACON
Sun 10:50:27 PM 39.7897 -104.5019 181° South 271 312 10,800 -655 Descending Denver Center
Sun 10:51:28 PM 39.7167 -104.5033 181° South 261 300 10,100 -829 Descending Denver Center
Sun 10:52:30 PM 39.6603 -104.5369 205° Southwest 227 261 9,100 -976 Descending Denver Center
Sun 10:53:31 PM 39.6653 -104.6144 275° West 218 251 8,100 -829 Descending Denver Center
Sun 10:54:33 PM 39.7097 -104.6575 323° Northwest 191 220 7,400 -683 Descending Denver Center
Sun 10:55:34 PM 39.7617 -104.6614 357° North 186 214 6,700 -738 Descending Denver Center
Sun 10:56:35 PM 39.8089 -104.6617 360° North 159 183 5,900 -634 Descending Denver Center
Sun 10:57:37 PM 39.8428 -104.6617 360° North 139 160 5,400 -484 Descending Denver Center
Sun 10:59:00 PM 39.8500 -104.6667 North  Level FlightAware Approximate
Sun 11:06:00 PM 39.8617 -104.6732 North  Level Estimated
Sun 11:07:00 PM 39.8617 -104.6732 North  Level Estimated

Login

Don't have an account? Register now (free) for customized features, flight alerts, and more!